createdAt,value
2023-04-17T00:00:30.339Z,1020.60
2023-04-17T00:02:58.607Z,1020.64
2023-04-17T00:05:25.813Z,1020.59
2023-04-17T00:07:52.587Z,1020.54
2023-04-17T00:10:19.374Z,1020.53
2023-04-17T00:12:46.280Z,1020.45
2023-04-17T00:15:13.025Z,1020.35
2023-04-17T00:17:39.872Z,1020.41
2023-04-17T00:20:09.226Z,1020.42
2023-04-17T00:22:36.081Z,1020.38
2023-04-17T00:25:03.080Z,1020.38
2023-04-17T00:27:29.906Z,1020.40
2023-04-17T00:29:56.664Z,1020.51
2023-04-17T00:32:23.584Z,1020.49
2023-04-17T00:34:50.414Z,1020.41
2023-04-17T00:37:18.581Z,1020.47
2023-04-17T00:39:45.313Z,1020.35
2023-04-17T00:42:12.002Z,1020.34
2023-04-17T00:44:38.839Z,1020.48
2023-04-17T00:47:05.817Z,1020.29
2023-04-17T00:49:32.703Z,1020.36
2023-04-17T00:51:59.863Z,1020.39
2023-04-17T00:54:28.185Z,1020.38
2023-04-17T00:56:56.851Z,1020.41
2023-04-17T00:59:25.069Z,1020.47
2023-04-17T01:01:51.876Z,1020.53
2023-04-17T01:04:18.955Z,1020.44
2023-04-17T01:06:46.324Z,1020.34
2023-04-17T01:09:13.933Z,1020.41
2023-04-17T01:11:42.262Z,1020.32
2023-04-17T01:14:09.032Z,1020.34
2023-04-17T01:16:35.892Z,1020.34
2023-04-17T01:19:02.727Z,1020.30
2023-04-17T01:21:29.532Z,1020.34
2023-04-17T01:24:01.840Z,1020.28
2023-04-17T01:26:31.473Z,1020.29
2023-04-17T01:28:59.837Z,1020.25
2023-04-17T01:31:27.624Z,1020.20
2023-04-17T01:33:54.715Z,1020.29
2023-04-17T01:36:21.723Z,1020.21
2023-04-17T01:38:48.526Z,1020.27
2023-04-17T01:41:16.761Z,1020.23
2023-04-17T01:43:45.849Z,1020.24
2023-04-17T01:46:12.970Z,1020.35
2023-04-17T01:48:40.089Z,1020.31
2023-04-17T01:51:06.975Z,1020.24
2023-04-17T01:53:34.500Z,1020.39
2023-04-17T01:56:01.364Z,1020.37
2023-04-17T01:58:30.068Z,1020.31
2023-04-17T02:00:57.212Z,1020.34
2023-04-17T02:03:24.168Z,1020.32
2023-04-17T02:05:53.122Z,1020.39
2023-04-17T02:08:19.960Z,1020.34
2023-04-17T02:10:46.791Z,1020.40
2023-04-17T02:13:13.677Z,1020.41
2023-04-17T02:15:42.380Z,1020.37
2023-04-17T02:18:09.574Z,1020.41
2023-04-17T02:20:37.842Z,1020.41
2023-04-17T02:23:05.742Z,1020.44
2023-04-17T02:25:32.668Z,1020.42
2023-04-17T02:27:59.731Z,1020.37
2023-04-17T02:30:27.171Z,1020.44
2023-04-17T02:32:55.577Z,1020.40
2023-04-17T02:35:23.893Z,1020.40
2023-04-17T02:37:50.609Z,1020.45
2023-04-17T02:40:17.620Z,1020.39
2023-04-17T02:42:44.503Z,1020.40
2023-04-17T02:45:11.477Z,1020.47
2023-04-17T02:47:38.252Z,1020.47
2023-04-17T02:50:07.854Z,1020.48
2023-04-17T02:52:34.724Z,1020.50
2023-04-17T02:55:01.604Z,1020.47
2023-04-17T02:57:28.432Z,1020.50
2023-04-17T02:59:55.213Z,1020.49
2023-04-17T03:02:22.200Z,1020.40
2023-04-17T03:04:49.456Z,1020.40
2023-04-17T03:07:18.360Z,1020.43
2023-04-17T03:09:45.734Z,1020.50
2023-04-17T03:12:12.923Z,1020.46
2023-04-17T03:14:40.004Z,1020.47
2023-04-17T03:17:07.134Z,1020.54
2023-04-17T03:19:34.081Z,1020.55
2023-04-17T03:22:00.953Z,1020.57
2023-04-17T03:24:29.281Z,1020.57
2023-04-17T03:26:56.008Z,1020.63
2023-04-17T03:29:22.819Z,1020.76
2023-04-17T03:31:49.744Z,1020.65
2023-04-17T03:34:17.061Z,1020.78
2023-04-17T03:36:43.941Z,1020.78
2023-04-17T03:39:11.169Z,1020.79
2023-04-17T03:41:39.655Z,1020.74
2023-04-17T03:44:06.437Z,1020.70
2023-04-17T03:46:33.218Z,1020.69
2023-04-17T03:48:59.998Z,1020.78
2023-04-17T03:51:27.155Z,1020.73
2023-04-17T03:53:53.970Z,1020.69
2023-04-17T03:56:20.797Z,1020.61
2023-04-17T03:58:49.029Z,1020.72
2023-04-17T04:01:16.003Z,1020.70
2023-04-17T04:03:43.262Z,1020.70
2023-04-17T04:06:10.377Z,1020.81
2023-04-17T04:08:37.142Z,1020.90
2023-04-17T04:11:04.033Z,1021.01
2023-04-17T04:13:30.771Z,1020.91
2023-04-17T04:15:58.970Z,1020.90
2023-04-17T04:18:25.776Z,1020.89
2023-04-17T04:20:52.537Z,1020.86
2023-04-17T04:23:19.320Z,1020.85
2023-04-17T04:25:46.135Z,1020.87
2023-04-17T04:28:12.898Z,1020.78
2023-04-17T04:30:39.682Z,1020.70
2023-04-17T04:33:07.921Z,1020.72
2023-04-17T04:35:34.704Z,1020.75
2023-04-17T04:38:01.456Z,1020.73
2023-04-17T04:40:28.277Z,1020.78
2023-04-17T04:42:55.087Z,1020.71
2023-04-17T04:45:22.012Z,1020.76
2023-04-17T04:47:48.837Z,1020.74
2023-04-17T04:50:17.071Z,1020.70
2023-04-17T04:52:43.853Z,1020.66
2023-04-17T04:55:10.605Z,1020.72
2023-04-17T04:57:37.381Z,1020.60
2023-04-17T05:00:05.143Z,1020.71
2023-04-17T05:02:32.112Z,1020.67
2023-04-17T05:04:59.085Z,1020.62
2023-04-17T05:07:27.370Z,1020.67
2023-04-17T05:09:54.121Z,1020.72
2023-04-17T05:12:20.881Z,1020.61
2023-04-17T05:14:47.590Z,1020.70
2023-04-17T05:17:14.433Z,1020.77
2023-04-17T05:19:41.199Z,1020.80
2023-04-17T05:22:07.944Z,1020.82
2023-04-17T05:24:36.063Z,1020.86
2023-04-17T05:27:02.848Z,1020.88
2023-04-17T05:29:29.637Z,1020.84
2023-04-17T05:31:56.509Z,1020.87
2023-04-17T05:34:23.305Z,1020.83
2023-04-17T05:36:50.156Z,1020.73
2023-04-17T05:39:16.870Z,1020.77
2023-04-17T05:41:44.983Z,1020.74
2023-04-17T05:44:11.724Z,1020.60
2023-04-17T05:46:38.461Z,1020.58
2023-04-17T05:49:05.249Z,1020.54
2023-04-17T05:51:31.989Z,1020.59
2023-04-17T05:53:58.746Z,1020.48
2023-04-17T05:56:25.553Z,1020.42
2023-04-17T05:58:53.679Z,1020.44
2023-04-17T06:01:20.673Z,1020.45
2023-04-17T06:03:47.744Z,1020.34
2023-04-17T06:06:14.884Z,1020.39
2023-04-17T06:08:41.631Z,1020.33
2023-04-17T06:11:08.407Z,1020.45
2023-04-17T06:13:35.174Z,1020.49
2023-04-17T06:16:03.307Z,1020.40
2023-04-17T06:18:30.084Z,1020.40
2023-04-17T06:20:57.901Z,1020.39
2023-04-17T06:23:24.720Z,1020.46
2023-04-17T06:25:51.427Z,1020.44
2023-04-17T06:28:18.167Z,1020.46
2023-04-17T06:30:44.994Z,1020.51
2023-04-17T06:33:13.112Z,1020.50
2023-04-17T06:35:39.991Z,1020.46
2023-04-17T06:38:07.052Z,1020.39
2023-04-17T06:40:33.903Z,1020.35
2023-04-17T06:43:00.737Z,1020.30
2023-04-17T06:45:27.572Z,1020.28
2023-04-17T06:47:54.463Z,1020.20
2023-04-17T06:50:22.836Z,1020.16
2023-04-17T06:52:49.579Z,1020.22
2023-04-17T06:55:17.140Z,1020.15
2023-04-17T06:57:43.916Z,1020.04
2023-04-17T07:00:12.065Z,1019.97
2023-04-17T07:02:38.951Z,1019.97
2023-04-17T07:05:06.750Z,1019.93
2023-04-17T07:07:34.917Z,1019.85
2023-04-17T07:10:02.169Z,1019.82
2023-04-17T07:12:29.053Z,1019.89
2023-04-17T07:14:55.852Z,1019.86
2023-04-17T07:17:22.725Z,1019.72
2023-04-17T07:19:49.486Z,1019.65
2023-04-17T07:22:16.338Z,1019.76
2023-04-17T07:24:44.488Z,1019.70
2023-04-17T07:27:11.345Z,1019.77
2023-04-17T07:29:38.089Z,1019.67
2023-04-17T07:32:05.124Z,1019.76
2023-04-17T07:34:31.939Z,1019.69
2023-04-17T07:36:58.776Z,1019.68
2023-04-17T07:39:25.872Z,1019.64
2023-04-17T07:41:54.060Z,1019.61
2023-04-17T07:44:20.810Z,1019.52
2023-04-17T07:46:47.727Z,1019.41
2023-04-17T07:49:14.747Z,1019.37
2023-04-17T07:51:41.745Z,1019.37
2023-04-17T07:54:08.527Z,1019.27
2023-04-17T07:56:35.357Z,1019.20
2023-04-17T07:59:03.765Z,1019.21
2023-04-17T08:01:30.524Z,1019.17
2023-04-17T08:03:57.646Z,1019.25
2023-04-17T08:06:24.840Z,1019.17
2023-04-17T08:08:51.571Z,1019.06
2023-04-17T08:11:18.279Z,1018.99
2023-04-17T08:13:45.452Z,1018.84
2023-04-17T08:16:13.692Z,1018.64
2023-04-17T08:18:41.811Z,1018.58
2023-04-17T08:21:08.834Z,1018.36
2023-04-17T08:23:35.627Z,1018.28
2023-04-17T08:26:02.432Z,1018.24
2023-04-17T08:28:29.224Z,1018.16
2023-04-17T08:30:56.043Z,1018.06
2023-04-17T08:33:24.232Z,1018.11
2023-04-17T08:35:51.665Z,1017.99
2023-04-17T08:38:18.426Z,1017.96
2023-04-17T08:40:49.304Z,1017.99
2023-04-17T08:43:18.309Z,1017.94
2023-04-17T08:45:48.507Z,1017.97
2023-04-17T08:48:15.475Z,1017.93
2023-04-17T08:50:47.444Z,1017.96
2023-04-17T08:53:14.245Z,1017.95
2023-04-17T08:55:41.099Z,1017.81
2023-04-17T08:58:07.997Z,1017.87
2023-04-17T09:00:36.542Z,1017.88
2023-04-17T09:03:05.726Z,1017.82
2023-04-17T09:05:33.004Z,1017.79
2023-04-17T09:08:12.550Z,1017.87
2023-04-17T09:10:40.747Z,1017.88
2023-04-17T09:13:07.660Z,1017.95
2023-04-17T09:15:35.175Z,1017.94
2023-04-17T09:18:02.613Z,1018.05
2023-04-17T09:20:29.514Z,1017.97
2023-04-17T09:23:01.756Z,1018.02
2023-04-17T09:25:30.278Z,1017.89
2023-04-17T09:28:09.682Z,1017.83
2023-04-17T09:30:37.526Z,1017.85
2023-04-17T09:33:05.967Z,1017.79
2023-04-17T09:35:33.358Z,1017.79
2023-04-17T09:38:00.577Z,1017.94
2023-04-17T09:40:36.047Z,1017.83
2023-04-17T09:43:06.113Z,1017.83
2023-04-17T09:45:35.010Z,1017.89
2023-04-17T09:48:04.902Z,1017.91
2023-04-17T09:50:32.432Z,1018.01
2023-04-17T09:52:59.309Z,1018.16
2023-04-17T09:55:27.188Z,1018.15
2023-04-17T09:57:55.654Z,1018.28
2023-04-17T10:00:26.191Z,1018.31
2023-04-17T10:02:54.141Z,1018.27
2023-04-17T10:05:21.990Z,1018.28
2023-04-17T10:07:48.805Z,1018.31
2023-04-17T10:10:23.202Z,1018.22
2023-04-17T10:12:51.912Z,1018.20
2023-04-17T10:15:19.766Z,1018.20
2023-04-17T10:17:48.085Z,1018.27
2023-04-17T10:20:37.134Z,1018.17
2023-04-17T10:23:26.266Z,1018.15
2023-04-17T10:26:42.553Z,1018.06
2023-04-17T10:29:09.377Z,1018.03
2023-04-17T10:32:12.689Z,1018.03
2023-04-17T10:34:43.338Z,1017.83
2023-04-17T10:37:10.884Z,1017.86
2023-04-17T10:39:56.178Z,1017.76
2023-04-17T10:42:23.907Z,1017.84
2023-04-17T10:44:51.944Z,1017.83
2023-04-17T10:47:21.682Z,1017.94
2023-04-17T10:49:51.357Z,1017.94
2023-04-17T10:52:41.226Z,1017.93
2023-04-17T10:55:09.909Z,1017.81
2023-04-17T10:58:00.221Z,1017.80
2023-04-17T11:00:32.646Z,1017.71
2023-04-17T11:03:01.077Z,1017.70
2023-04-17T11:05:30.211Z,1017.68
2023-04-17T11:07:57.139Z,1017.55
2023-04-17T11:10:24.393Z,1017.49
2023-04-17T11:12:53.408Z,1017.40
2023-04-17T11:15:26.361Z,1017.40
2023-04-17T11:17:55.101Z,1017.28
2023-04-17T11:20:24.697Z,1017.16
2023-04-17T11:22:54.601Z,1017.24
2023-04-17T11:25:25.108Z,1017.24
2023-04-17T11:27:56.763Z,1017.23
2023-04-17T11:30:27.458Z,1017.23
2023-04-17T11:32:57.350Z,1017.27
2023-04-17T11:35:29.642Z,1017.44
2023-04-17T11:38:12.933Z,1017.51
2023-04-17T11:40:47.342Z,1017.64
2023-04-17T11:43:14.747Z,1017.59
2023-04-17T11:45:43.118Z,1017.63
2023-04-17T11:48:11.361Z,1017.66
2023-04-17T11:50:38.727Z,1017.73
2023-04-17T11:53:06.404Z,1017.71
2023-04-17T11:55:34.830Z,1017.75
2023-04-17T11:58:03.640Z,1017.79
2023-04-17T12:00:31.181Z,1017.76
2023-04-17T12:02:59.685Z,1017.72
2023-04-17T12:05:27.949Z,1017.70
2023-04-17T12:08:02.711Z,1017.76
2023-04-17T12:10:38.912Z,1017.80
2023-04-17T12:13:05.859Z,1017.81
2023-04-17T12:15:32.712Z,1017.79
2023-04-17T12:17:59.550Z,1017.70
2023-04-17T12:20:27.276Z,1017.73
2023-04-17T12:22:54.822Z,1017.63
2023-04-17T12:25:21.563Z,1017.66
2023-04-17T12:27:49.691Z,1017.64
2023-04-17T12:30:16.585Z,1017.43
2023-04-17T12:32:43.414Z,1017.50
2023-04-17T12:35:10.228Z,1017.48
2023-04-17T12:37:37.037Z,1017.42
2023-04-17T12:40:04.524Z,1017.42
2023-04-17T12:42:33.703Z,1017.45
2023-04-17T12:45:09.581Z,1017.48
2023-04-17T12:47:36.578Z,1017.50
2023-04-17T12:50:04.422Z,1017.54
2023-04-17T12:52:31.311Z,1017.52
2023-04-17T12:54:58.053Z,1017.52
2023-04-17T12:57:25.091Z,1017.50
2023-04-17T12:59:51.826Z,1017.48
2023-04-17T13:02:20.157Z,1017.38
2023-04-17T13:04:47.042Z,1017.41
2023-04-17T13:07:13.845Z,1017.23
2023-04-17T13:09:40.591Z,1017.12
2023-04-17T13:12:07.531Z,1017.13
2023-04-17T13:14:34.516Z,1016.91
2023-04-17T13:17:02.258Z,1017.00
2023-04-17T13:19:32.172Z,1017.00
2023-04-17T13:21:59.522Z,1016.99
2023-04-17T13:24:26.858Z,1016.95
2023-04-17T13:26:55.184Z,1017.01
2023-04-17T13:29:21.954Z,1016.95
2023-04-17T13:31:48.879Z,1017.03
2023-04-17T13:34:15.691Z,1017.15
2023-04-17T13:36:43.933Z,1017.13
2023-04-17T13:39:11.349Z,1017.29
2023-04-17T13:41:38.590Z,1017.36
2023-04-17T13:44:06.009Z,1017.41
2023-04-17T13:46:33.090Z,1017.50
2023-04-17T13:49:00.768Z,1017.48
2023-04-17T13:51:27.682Z,1017.50
2023-04-17T13:53:55.952Z,1017.48
2023-04-17T13:56:22.720Z,1017.60
2023-04-17T13:58:49.521Z,1017.54
2023-04-17T14:01:16.309Z,1017.45
2023-04-17T14:03:46.224Z,1017.45
2023-04-17T14:06:14.761Z,1017.39
2023-04-17T14:08:42.962Z,1017.32
2023-04-17T14:11:12.924Z,1017.25
2023-04-17T14:13:39.757Z,1017.21
2023-04-17T14:16:07.034Z,1017.18
2023-04-17T14:18:33.986Z,1017.17
2023-04-17T14:21:00.824Z,1017.16
2023-04-17T14:23:27.849Z,1017.05
2023-04-17T14:25:54.634Z,1016.91
2023-04-17T14:28:22.912Z,1016.89
2023-04-17T14:30:50.620Z,1016.84
2023-04-17T14:33:17.400Z,1016.76
2023-04-17T14:35:44.160Z,1016.87
2023-04-17T14:38:10.910Z,1016.82
2023-04-17T14:40:37.837Z,1016.83
2023-04-17T14:43:04.618Z,1016.90
2023-04-17T14:45:33.030Z,1017.00
2023-04-17T14:47:59.998Z,1017.00
2023-04-17T14:50:26.991Z,1016.92
2023-04-17T14:52:53.856Z,1016.99
2023-04-17T14:55:21.106Z,1016.94
2023-04-17T14:57:48.046Z,1016.91
2023-04-17T15:00:16.007Z,1016.92
2023-04-17T15:02:44.374Z,1016.91
2023-04-17T15:05:11.410Z,1016.91
2023-04-17T15:07:38.276Z,1016.88
2023-04-17T15:10:06.072Z,1016.92
2023-04-17T15:12:32.912Z,1017.00
2023-04-17T15:14:59.685Z,1017.01
2023-04-17T15:17:26.582Z,1017.03
2023-04-17T15:19:55.011Z,1017.10
2023-04-17T15:22:21.776Z,1017.19
2023-04-17T15:24:48.642Z,1017.17
2023-04-17T15:27:15.577Z,1017.22
2023-04-17T15:29:43.956Z,1017.16
2023-04-17T15:32:10.718Z,1017.28
2023-04-17T15:34:38.568Z,1017.33
2023-04-17T15:37:07.939Z,1017.33
2023-04-17T15:39:35.824Z,1017.35
2023-04-17T15:42:02.671Z,1017.45
2023-04-17T15:44:29.444Z,1017.31
2023-04-17T15:46:56.353Z,1017.25
2023-04-17T15:49:23.296Z,1017.33
2023-04-17T15:51:50.545Z,1017.33
2023-04-17T15:54:18.706Z,1017.31
2023-04-17T15:56:45.469Z,1017.32
2023-04-17T15:59:12.498Z,1017.16
2023-04-17T16:01:39.500Z,1017.12
2023-04-17T16:04:06.479Z,1017.03
2023-04-17T16:06:33.678Z,1016.93
2023-04-17T16:09:01.127Z,1017.06
2023-04-17T16:11:29.280Z,1017.11
2023-04-17T16:13:55.984Z,1017.17
2023-04-17T16:16:22.893Z,1017.08
2023-04-17T16:18:49.850Z,1017.12
2023-04-17T16:21:16.660Z,1017.20
2023-04-17T16:23:43.448Z,1017.21
2023-04-17T16:26:11.100Z,1017.30
2023-04-17T16:28:39.316Z,1017.29
2023-04-17T16:31:06.206Z,1017.26
2023-04-17T16:33:32.998Z,1017.25
2023-04-17T16:35:59.773Z,1017.31
2023-04-17T16:38:26.578Z,1017.33
2023-04-17T16:40:53.486Z,1017.39
2023-04-17T16:43:20.296Z,1017.53
2023-04-17T16:45:48.472Z,1017.53
2023-04-17T16:48:15.252Z,1017.71
2023-04-17T16:50:42.107Z,1017.60
2023-04-17T16:53:08.887Z,1017.69
2023-04-17T16:55:36.744Z,1017.77
2023-04-17T16:58:03.508Z,1017.76
2023-04-17T17:00:30.550Z,1017.81
2023-04-17T17:02:58.729Z,1017.96
2023-04-17T17:05:25.606Z,1017.93
2023-04-17T17:07:52.396Z,1017.95
2023-04-17T17:10:19.198Z,1017.96
2023-04-17T17:12:45.913Z,1018.10
2023-04-17T17:15:12.674Z,1018.10
2023-04-17T17:17:39.485Z,1018.06
2023-04-17T17:20:09.243Z,1018.13
2023-04-17T17:22:36.016Z,1018.12
2023-04-17T17:25:02.853Z,1018.24
2023-04-17T17:27:29.755Z,1018.21
2023-04-17T17:29:58.405Z,1018.30
2023-04-17T17:32:26.933Z,1018.41
2023-04-17T17:34:54.188Z,1018.42
2023-04-17T17:37:22.372Z,1018.43
2023-04-17T17:39:49.110Z,1018.39
2023-04-17T17:42:15.845Z,1018.48
2023-04-17T17:44:42.582Z,1018.39
2023-04-17T17:47:09.373Z,1018.46
2023-04-17T17:49:36.237Z,1018.58
2023-04-17T17:52:03.002Z,1018.55
2023-04-17T17:54:35.166Z,1018.65
2023-04-17T17:57:01.939Z,1018.74
2023-04-17T17:59:28.737Z,1018.71
2023-04-17T18:01:56.108Z,1018.77
2023-04-17T18:04:23.535Z,1018.86
2023-04-17T18:06:51.024Z,1018.86
2023-04-17T18:09:18.592Z,1018.87
2023-04-17T18:11:48.233Z,1018.88
2023-04-17T18:14:15.606Z,1019.07
2023-04-17T18:16:43.065Z,1019.14
2023-04-17T18:19:10.248Z,1019.18
2023-04-17T18:21:37.604Z,1019.19
2023-04-17T18:24:05.767Z,1019.22
2023-04-17T18:26:33.002Z,1019.24
2023-04-17T18:29:01.838Z,1019.24
2023-04-17T18:31:29.204Z,1019.27
2023-04-17T18:33:56.644Z,1019.31
2023-04-17T18:36:24.123Z,1019.38
2023-04-17T18:38:51.561Z,1019.47
2023-04-17T18:41:18.788Z,1019.37
2023-04-17T18:43:46.109Z,1019.40
2023-04-17T18:46:14.987Z,1019.49
2023-04-17T18:48:42.410Z,1019.58
2023-04-17T18:51:10.902Z,1019.75
2023-04-17T18:53:38.480Z,1019.73
2023-04-17T18:56:06.606Z,1019.76
2023-04-17T18:58:34.167Z,1019.70
2023-04-17T19:01:01.648Z,1019.65
2023-04-17T19:03:30.681Z,1019.79
2023-04-17T19:05:57.499Z,1019.88
2023-04-17T19:08:24.241Z,1019.97
2023-04-17T19:10:50.935Z,1020.10
2023-04-17T19:13:17.740Z,1020.10
2023-04-17T19:15:44.466Z,1020.23
2023-04-17T19:18:11.276Z,1020.14
2023-04-17T19:20:39.399Z,1020.20
2023-04-17T19:23:06.524Z,1020.32
2023-04-17T19:25:33.284Z,1020.42
2023-04-17T19:28:01.043Z,1020.40
2023-04-17T19:30:27.886Z,1020.38
2023-04-17T19:32:54.745Z,1020.45
2023-04-17T19:35:22.566Z,1020.47
2023-04-17T19:37:50.787Z,1020.52
2023-04-17T19:40:24.292Z,1020.39
2023-04-17T19:42:52.153Z,1020.46
2023-04-17T19:45:24.523Z,1020.53
2023-04-17T19:47:52.549Z,1020.54
2023-04-17T19:50:20.434Z,1020.47
2023-04-17T19:52:48.353Z,1020.55
2023-04-17T19:55:16.699Z,1020.58
2023-04-17T19:57:43.848Z,1020.54
2023-04-17T20:00:12.285Z,1020.52
2023-04-17T20:02:40.004Z,1020.47
2023-04-17T20:05:07.714Z,1020.45
2023-04-17T20:07:34.691Z,1020.49
2023-04-17T20:10:01.587Z,1020.43
2023-04-17T20:12:30.031Z,1020.49
2023-04-17T20:14:56.886Z,1020.48
2023-04-17T20:17:23.733Z,1020.56
2023-04-17T20:19:50.483Z,1020.44
2023-04-17T20:22:17.302Z,1020.47
2023-04-17T20:24:44.206Z,1020.43
2023-04-17T20:27:11.131Z,1020.52
2023-04-17T20:29:39.308Z,1020.49
2023-04-17T20:32:06.160Z,1020.50
2023-04-17T20:34:32.950Z,1020.60
2023-04-17T20:36:59.697Z,1020.49
2023-04-17T20:39:26.580Z,1020.51
2023-04-17T20:41:53.380Z,1020.55
2023-04-17T20:44:20.253Z,1020.59
2023-04-17T20:46:48.426Z,1020.63
2023-04-17T20:49:15.252Z,1020.56
2023-04-17T20:51:42.086Z,1020.65
2023-04-17T20:54:08.886Z,1020.64
2023-04-17T20:56:35.787Z,1020.71
2023-04-17T20:59:02.779Z,1020.71
2023-04-17T21:01:29.588Z,1020.73
2023-04-17T21:03:57.918Z,1020.76
2023-04-17T21:06:24.849Z,1020.75
2023-04-17T21:08:51.644Z,1020.90
2023-04-17T21:11:18.454Z,1020.79
2023-04-17T21:13:45.198Z,1020.78
2023-04-17T21:16:12.113Z,1020.80
2023-04-17T21:18:39.009Z,1020.81
2023-04-17T21:21:07.134Z,1020.99
2023-04-17T21:23:33.881Z,1020.93
2023-04-17T21:26:00.589Z,1021.02
2023-04-17T21:28:27.632Z,1020.99
2023-04-17T21:30:54.553Z,1020.83
2023-04-17T21:33:21.341Z,1020.85
2023-04-17T21:35:48.101Z,1020.89
2023-04-17T21:38:16.194Z,1020.96
2023-04-17T21:40:50.998Z,1021.00
2023-04-17T21:43:18.477Z,1020.99
2023-04-17T21:45:45.278Z,1021.04
2023-04-17T21:48:13.830Z,1021.06
2023-04-17T21:50:40.621Z,1021.03
2023-04-17T21:53:07.462Z,1021.00
2023-04-17T21:55:35.848Z,1020.98
2023-04-17T21:58:03.008Z,1020.99
2023-04-17T22:00:29.839Z,1020.96
2023-04-17T22:02:56.702Z,1020.91
2023-04-17T22:05:23.638Z,1020.97
2023-04-17T22:07:54.908Z,1020.93
2023-04-17T22:10:22.941Z,1020.91
2023-04-17T22:12:51.213Z,1020.78
2023-04-17T22:15:18.102Z,1020.87
2023-04-17T22:17:44.937Z,1020.94
2023-04-17T22:20:12.634Z,1020.90
2023-04-17T22:22:39.530Z,1020.90
2023-04-17T22:25:06.752Z,1021.05
2023-04-17T22:27:33.529Z,1021.03
2023-04-17T22:30:01.791Z,1021.08
2023-04-17T22:32:28.644Z,1020.90
2023-04-17T22:34:55.536Z,1021.04
2023-04-17T22:37:22.391Z,1021.08
2023-04-17T22:39:49.481Z,1021.01
2023-04-17T22:42:16.298Z,1021.12
2023-04-17T22:44:43.092Z,1021.08
2023-04-17T22:47:11.296Z,1021.09
2023-04-17T22:49:38.131Z,1020.94
2023-04-17T22:52:05.020Z,1020.91
2023-04-17T22:54:31.871Z,1020.91
2023-04-17T22:56:58.762Z,1020.81
2023-04-17T22:59:25.551Z,1020.67
2023-04-17T23:01:52.681Z,1020.68
2023-04-17T23:04:22.242Z,1020.72
2023-04-17T23:06:49.088Z,1020.77
2023-04-17T23:09:15.905Z,1020.77
2023-04-17T23:11:42.707Z,1020.76
2023-04-17T23:14:09.497Z,1020.78
2023-04-17T23:16:36.468Z,1020.78
2023-04-17T23:19:03.286Z,1020.85
2023-04-17T23:21:31.496Z,1020.80
2023-04-17T23:23:58.251Z,1020.80
2023-04-17T23:26:25.107Z,1020.81
2023-04-17T23:28:51.919Z,1020.91
2023-04-17T23:31:18.723Z,1020.83
2023-04-17T23:33:45.513Z,1020.82
2023-04-17T23:36:12.302Z,1020.78
2023-04-17T23:38:40.462Z,1020.76
2023-04-17T23:41:07.239Z,1020.82
2023-04-17T23:43:34.014Z,1020.77
2023-04-17T23:46:00.790Z,1020.70
2023-04-17T23:48:27.644Z,1020.73
2023-04-17T23:50:54.475Z,1020.70
2023-04-17T23:53:21.252Z,1020.69
2023-04-17T23:55:49.410Z,1020.80
2023-04-17T23:58:16.138Z,1020.81
